Terminal Aerodrome Forecast
Issued by NWS

Home | Current Version | Previous Version | Text Only | Print | Product List | Glossary On
Versions: 1 2 3 4 5 6 7 8 9 10 11 12
598
FTUS42 TJSJ 111120
TAFKPK
TAF
TKPK 111120Z 1112/1212 08010KT P6SM VCSH SCT020 SCT040
     FM112000 10012KT P6SM FEW022 FEW035=

USA.gov is the U.S. government's official web portal to all federal, state and local government web resources and services.